Time;durP1;ratioP1;P1;durP2;ratioP2;P2;SDS_P1;SDS_P2;PMS_P1;PMS_P2;Temp;Humidity;BMP_temperature;BMP_pressure;BME280_temperature;BME280_humidity;BME280_pressure;Samples;Min_cycle;Max_cycle;Signal;HPM_P1;HPM_P2
2023/02/07 00:00:46;;;;;;;10.00;7.63;;;-1.00;99.90;;;;;;5017131;28;20293;-49
2023/02/07 00:03:13;;;;;;;11.27;8.37;;;-0.90;99.90;;;;;;5014659;28;20233;-49
2023/02/07 00:05:40;;;;;;;9.67;7.57;;;-0.80;99.90;;;;;;5024782;28;20225;-50
2023/02/07 00:08:09;;;;;;;10.60;8.20;;;-0.80;99.90;;;;;;5021127;28;20267;-49
2023/02/07 00:10:36;;;;;;;16.80;8.57;;;-0.90;99.90;;;;;;5014740;28;20201;-49
2023/02/07 00:13:03;;;;;;;9.37;7.47;;;-0.90;99.90;;;;;;5018615;28;20233;-48
2023/02/07 00:15:30;;;;;;;9.53;8.23;;;-0.90;99.90;;;;;;5023449;28;20255;-49
2023/02/07 00:17:57;;;;;;;10.93;7.60;;;-0.90;99.90;;;;;;5019279;28;20261;-49
2023/02/07 00:20:25;;;;;;;8.77;6.90;;;-1.00;99.90;;;;;;5028794;28;20206;-49
2023/02/07 00:22:54;;;;;;;11.67;8.37;;;-1.00;99.90;;;;;;5013399;28;20222;-49
2023/02/07 00:25:22;;;;;;;10.27;7.20;;;-1.00;99.90;;;;;;5022676;28;20224;-48
2023/02/07 00:27:49;;;;;;;11.33;7.60;;;-1.10;99.90;;;;;;5017085;28;20302;-50
2023/02/07 00:30:16;;;;;;;11.53;7.73;;;-1.10;99.90;;;;;;5018913;28;20210;-49
2023/02/07 00:32:43;;;;;;;9.23;8.23;;;-1.20;99.90;;;;;;5014935;28;20665;-49
2023/02/07 00:35:10;;;;;;;14.43;8.33;;;-1.20;99.90;;;;;;5023002;28;20614;-50
2023/02/07 00:37:37;;;;;;;8.77;7.37;;;-1.30;99.90;;;;;;5017279;28;20346;-51
2023/02/07 00:40:05;;;;;;;9.97;7.17;;;-1.40;99.90;;;;;;5013730;28;20231;-49
2023/02/07 00:42:33;;;;;;;11.13;8.43;;;-1.40;99.90;;;;;;5012104;28;20204;-49
2023/02/07 00:45:00;;;;;;;9.80;7.43;;;-1.40;99.90;;;;;;5012740;28;20272;-49
2023/02/07 00:47:30;;;;;;;9.03;7.63;;;-1.30;99.90;;;;;;5013244;28;20208;-50
2023/02/07 00:49:57;;;;;;;12.23;8.50;;;-1.30;99.90;;;;;;5032906;28;20765;-49
2023/02/07 00:52:24;;;;;;;13.10;8.83;;;-1.30;99.90;;;;;;5023503;28;20678;-49
2023/02/07 00:54:51;;;;;;;14.10;9.93;;;-1.30;99.90;;;;;;5020609;28;20741;-50
2023/02/07 00:57:18;;;;;;;17.53;11.50;;;-1.40;99.90;;;;;;5022755;28;20712;-49
2023/02/07 00:59:46;;;;;;;17.13;10.23;;;-1.40;99.90;;;;;;5026570;28;21226;-49
2023/02/07 01:02:13;;;;;;;13.63;9.67;;;-1.40;99.90;;;;;;5023976;28;20254;-50
2023/02/07 01:04:40;;;;;;;16.83;10.40;;;-1.50;99.90;;;;;;5028891;28;20207;-50
2023/02/07 01:07:08;;;;;;;13.47;10.33;;;-1.50;99.90;;;;;;5030978;28;20222;-50
2023/02/07 01:09:35;;;;;;;14.07;9.60;;;-1.50;99.90;;;;;;5051677;28;20202;-49
2023/02/07 01:12:02;;;;;;;13.17;9.03;;;-1.50;99.90;;;;;;5031988;28;20205;-49
2023/02/07 01:14:28;;;;;;;13.13;9.70;;;-1.60;99.90;;;;;;5027838;28;20223;-49
2023/02/07 01:16:57;;;;;;;17.40;9.43;;;-1.60;99.90;;;;;;5025906;28;20230;-50
2023/02/07 01:19:24;;;;;;;16.13;9.27;;;-1.70;99.90;;;;;;5034232;28;20206;-50
2023/02/07 01:21:51;;;;;;;13.40;10.27;;;-1.70;99.90;;;;;;5023369;28;20275;-50
2023/02/07 01:24:18;;;;;;;15.00;9.83;;;-1.70;99.90;;;;;;5025226;28;20712;-49
2023/02/07 01:26:45;;;;;;;15.43;10.47;;;-1.70;99.90;;;;;;5025193;28;20215;-49
2023/02/07 01:29:15;;;;;;;19.23;10.60;;;-1.80;99.90;;;;;;5027508;28;20208;-49
2023/02/07 01:31:42;;;;;;;15.10;10.60;;;-1.70;99.90;;;;;;5032326;28;20296;-50
2023/02/07 01:34:13;;;;;;;13.83;9.87;;;-1.70;99.90;;;;;;5025765;28;20276;-49
2023/02/07 01:36:40;;;;;;;13.03;10.23;;;-1.70;99.90;;;;;;5021068;28;20288;-49
2023/02/07 01:39:07;;;;;;;15.73;11.53;;;-1.70;99.90;;;;;;5020498;28;20205;-50
2023/02/07 01:41:35;;;;;;;19.63;12.27;;;-1.80;99.90;;;;;;5012964;28;20576;-49
2023/02/07 01:44:04;;;;;;;20.43;12.23;;;-1.90;99.90;;;;;;5014490;28;20643;-49
2023/02/07 01:46:32;;;;;;;18.87;12.70;;;-1.90;99.90;;;;;;5016273;28;20293;-50
2023/02/07 01:49:04;;;;;;;15.53;11.53;;;-2.00;99.90;;;;;;5017254;28;20632;-49
2023/02/07 01:51:35;;;;;;;13.63;10.97;;;-2.10;99.90;;;;;;5015455;28;20590;-49
2023/02/07 01:54:05;;;;;;;15.73;10.73;;;-2.10;99.90;;;;;;5029102;28;20270;-49
2023/02/07 01:56:33;;;;;;;18.37;11.90;;;-2.10;99.90;;;;;;5032601;28;20196;-50
2023/02/07 01:59:02;;;;;;;13.33;10.17;;;-2.10;99.90;;;;;;5022265;28;20751;-49
2023/02/07 02:01:29;;;;;;;15.53;11.27;;;-2.00;99.90;;;;;;5037282;28;20195;-50
2023/02/07 02:03:56;;;;;;;19.10;12.17;;;-1.90;99.90;;;;;;5024869;28;20276;-49
2023/02/07 02:06:27;;;;;;;13.13;10.50;;;-1.80;99.90;;;;;;5027326;28;20215;-49
2023/02/07 02:08:57;;;;;;;17.17;11.80;;;-1.80;99.90;;;;;;5031708;28;20254;-49
2023/02/07 02:12:12;;;;;;;13.63;10.10;;;-1.90;99.90;;;;;;5029770;28;20199;-49
2023/02/07 02:14:58;;;;;;;15.20;11.17;;;-2.00;99.90;;;;;;4974699;28;20490;-49
2023/02/07 02:17:39;;;;;;;17.23;12.00;;;-2.00;99.90;;;;;;5025684;28;20266;-50
2023/02/07 02:20:46;;;;;;;17.17;10.97;;;-2.10;99.90;;;;;;5027136;28;20281;-50
2023/02/07 02:23:21;;;;;;;16.57;10.93;;;-2.10;99.90;;;;;;5015712;28;20282;-49
2023/02/07 02:26:24;;;;;;;15.90;11.70;;;-2.10;99.90;;;;;;5026171;28;20227;-49
2023/02/07 02:29:31;;;;;;;19.53;11.67;;;-2.20;99.90;;;;;;4974099;28;20249;-50
2023/02/07 02:32:40;;;;;;;13.73;10.47;;;-2.10;99.90;;;;;;5025168;28;20217;-49
2023/02/07 02:35:16;;;;;;;16.23;11.67;;;-2.00;99.90;;;;;;5011693;28;20748;-51
2023/02/07 02:37:55;;;;;;;16.53;10.77;;;-2.10;99.90;;;;;;5029943;28;20200;-49
2023/02/07 02:40:29;;;;;;;14.57;11.30;;;-2.20;99.90;;;;;;5022059;28;20249;-50
2023/02/07 02:43:01;;;;;;;16.57;11.43;;;-2.30;99.90;;;;;;5033563;28;20223;-50
2023/02/07 02:45:33;;;;;;;16.47;11.97;;;-2.20;99.90;;;;;;5020260;28;20272;-49
2023/02/07 02:48:02;;;;;;;17.83;11.03;;;-2.30;99.90;;;;;;5028948;28;20294;-50
2023/02/07 02:50:34;;;;;;;19.07;12.30;;;-2.30;99.90;;;;;;5030700;28;20702;-49
2023/02/07 02:53:01;;;;;;;19.37;11.53;;;-2.30;99.90;;;;;;5025195;28;20280;-49
2023/02/07 02:55:53;;;;;;;15.83;10.17;;;-2.30;99.90;;;;;;5026594;28;20752;-50
2023/02/07 02:58:28;;;;;;;18.37;10.93;;;-2.30;99.90;;;;;;5033327;28;20192;-50
2023/02/07 03:01:15;;;;;;;21.30;12.37;;;-2.30;99.90;;;;;;5034042;28;20204;-49
2023/02/07 03:04:20;;;;;;;18.13;11.07;;;-2.40;99.90;;;;;;5025759;28;20292;-49
2023/02/07 03:07:02;;;;;;;15.53;10.27;;;-2.40;99.90;;;;;;5030075;28;20216;-49
2023/02/07 03:09:38;;;;;;;15.53;10.07;;;-2.40;99.90;;;;;;5030244;28;20208;-50
2023/02/07 03:12:14;;;;;;;15.27;10.17;;;-2.40;99.90;;;;;;5029350;28;20474;-50
2023/02/07 03:14:53;;;;;;;17.83;11.03;;;-2.50;99.90;;;;;;5030827;28;20615;-49
2023/02/07 03:17:28;;;;;;;11.97;9.67;;;-2.50;99.90;;;;;;5026596;28;20347;-48
2023/02/07 03:20:01;;;;;;;13.87;10.27;;;-2.50;99.90;;;;;;5026512;28;20208;-50
2023/02/07 03:22:34;;;;;;;13.70;10.13;;;-2.50;99.90;;;;;;5023163;28;20253;-50
2023/02/07 03:25:03;;;;;;;11.57;8.83;;;-2.40;99.90;;;;;;5030637;28;20246;-49
2023/02/07 03:27:33;;;;;;;13.27;10.13;;;-2.40;99.90;;;;;;5025225;28;20296;-49
2023/02/07 03:30:03;;;;;;;14.43;10.63;;;-2.50;99.90;;;;;;5039186;28;20692;-48
2023/02/07 03:32:37;;;;;;;13.20;9.83;;;-2.40;99.90;;;;;;5031685;28;20509;-50
2023/02/07 03:35:09;;;;;;;15.63;10.33;;;-2.40;99.90;;;;;;5026183;28;20729;-51
2023/02/07 03:37:40;;;;;;;13.63;10.10;;;-2.40;99.90;;;;;;5030694;28;20761;-48
2023/02/07 03:40:09;;;;;;;15.00;10.67;;;-2.40;99.90;;;;;;5033204;28;20258;-51
2023/02/07 03:42:39;;;;;;;14.57;9.70;;;-2.50;99.90;;;;;;5045158;28;20278;-50
2023/02/07 03:45:09;;;;;;;15.43;9.53;;;-2.40;99.90;;;;;;5033528;28;20203;-50
2023/02/07 03:47:36;;;;;;;11.47;8.50;;;-2.30;99.90;;;;;;5033359;28;20222;-49
2023/02/07 03:50:04;;;;;;;12.40;9.13;;;-2.30;99.90;;;;;;5022715;28;20469;-49
2023/02/07 03:52:31;;;;;;;10.93;9.20;;;-2.40;99.90;;;;;;5026547;28;20258;-50
2023/02/07 03:55:00;;;;;;;15.30;10.27;;;-2.40;99.90;;;;;;5024793;28;20250;-49
2023/02/07 03:57:28;;;;;;;13.63;9.03;;;-2.20;99.90;;;;;;5033261;28;20579;-48
2023/02/07 03:59:55;;;;;;;14.77;9.50;;;-2.30;99.90;;;;;;5017357;28;20207;-48
2023/02/07 04:02:23;;;;;;;11.53;8.67;;;-2.40;99.90;;;;;;5013123;28;20239;-50
2023/02/07 04:04:50;;;;;;;14.87;9.77;;;-2.50;99.90;;;;;;5013171;28;20701;-48
2023/02/07 04:07:17;;;;;;;16.60;9.43;;;-2.50;99.90;;;;;;5030108;28;20226;-48
2023/02/07 04:09:45;;;;;;;13.53;9.17;;;-2.50;99.90;;;;;;5031141;28;20205;-48
2023/02/07 04:12:14;;;;;;;11.87;8.67;;;-2.60;99.90;;;;;;5040461;28;20553;-48
2023/02/07 04:14:41;;;;;;;13.17;8.37;;;-2.60;99.90;;;;;;5050515;28;20207;-47
2023/02/07 04:17:08;;;;;;;10.77;8.17;;;-2.60;99.90;;;;;;5016950;28;20204;-48
2023/02/07 04:19:35;;;;;;;12.73;8.83;;;-2.60;99.90;;;;;;5012993;28;20205;-49
2023/02/07 04:22:02;;;;;;;13.33;9.00;;;-2.60;99.90;;;;;;5024049;28;20208;-48
2023/02/07 04:24:31;;;;;;;10.23;7.90;;;-2.60;99.90;;;;;;5013352;28;20275;-50
2023/02/07 04:26:58;;;;;;;10.13;7.33;;;-2.60;99.90;;;;;;5012474;28;20229;-48
2023/02/07 04:29:26;;;;;;;12.70;8.37;;;-2.70;99.90;;;;;;5037242;28;20263;-48
2023/02/07 04:31:53;;;;;;;11.67;8.13;;;-2.60;99.90;;;;;;5051850;28;20345;-49
2023/02/07 04:34:20;;;;;;;11.73;7.33;;;-2.50;99.90;;;;;;5013395;28;20237;-47
2023/02/07 04:36:47;;;;;;;11.67;8.23;;;-2.50;99.90;;;;;;5014526;28;20638;-49
2023/02/07 04:39:14;;;;;;;13.87;9.13;;;-2.60;99.90;;;;;;5040231;28;20199;-47
2023/02/07 04:41:41;;;;;;;11.57;8.33;;;-2.60;99.90;;;;;;5021690;28;20211;-47
2023/02/07 04:44:08;;;;;;;11.00;7.67;;;-2.70;99.90;;;;;;5021823;28;20218;-47
2023/02/07 04:46:37;;;;;;;13.57;8.13;;;-2.70;99.90;;;;;;5024327;28;20314;-51
2023/02/07 04:49:04;;;;;;;10.63;7.43;;;-2.80;99.90;;;;;;5028305;28;20200;-47
2023/02/07 04:51:31;;;;;;;14.03;8.97;;;-2.80;99.90;;;;;;5042964;28;20239;-47
2023/02/07 04:53:59;;;;;;;13.07;8.60;;;-2.80;99.90;;;;;;5031853;28;20219;-48
2023/02/07 04:56:26;;;;;;;13.00;9.43;;;-2.80;99.90;;;;;;5019928;28;20287;-50
2023/02/07 04:58:53;;;;;;;11.63;8.63;;;-2.80;99.90;;;;;;5039168;28;20253;-51
2023/02/07 05:01:20;;;;;;;13.90;9.23;;;-2.80;99.90;;;;;;5019302;28;20203;-48
2023/02/07 05:03:48;;;;;;;14.37;9.20;;;-2.80;99.90;;;;;;5032266;28;20228;-48
2023/02/07 05:06:15;;;;;;;11.10;7.87;;;-2.80;99.90;;;;;;5036731;28;20250;-47
2023/02/07 05:08:42;;;;;;;22.07;9.40;;;-2.80;99.90;;;;;;5031681;28;20251;-48
2023/02/07 05:11:09;;;;;;;11.63;8.43;;;-2.80;99.90;;;;;;5031875;28;20196;-47
2023/02/07 05:13:36;;;;;;;10.73;7.87;;;-2.80;99.90;;;;;;5028278;28;20288;-49
2023/02/07 05:16:04;;;;;;;15.90;8.37;;;-2.90;99.90;;;;;;5011880;28;20205;-48
2023/02/07 05:18:32;;;;;;;11.63;9.20;;;-2.90;99.90;;;;;;5012434;28;20225;-48
2023/02/07 05:21:00;;;;;;;18.67;12.17;;;-2.90;99.90;;;;;;5028481;28;20615;-48
2023/02/07 05:23:27;;;;;;;13.27;9.37;;;-2.90;99.90;;;;;;5035614;28;20235;-48
2023/02/07 05:25:54;;;;;;;16.27;10.40;;;-2.90;99.90;;;;;;5024992;28;20265;-47
2023/02/07 05:28:21;;;;;;;22.13;11.10;;;-2.90;99.90;;;;;;5031288;28;20271;-48
2023/02/07 05:30:48;;;;;;;18.00;11.00;;;-2.90;99.90;;;;;;5026226;28;20217;-47
2023/02/07 05:33:14;;;;;;;20.13;11.97;;;-2.80;99.90;;;;;;5011280;28;20231;-48
2023/02/07 05:35:43;;;;;;;23.77;14.97;;;-2.90;99.90;;;;;;5011217;28;20672;-47
2023/02/07 05:38:14;;;;;;;22.60;12.83;;;-3.00;99.90;;;;;;5025166;28;20336;-49
2023/02/07 05:40:42;;;;;;;23.13;14.33;;;-2.90;99.90;;;;;;5028969;28;20455;-47
2023/02/07 05:43:10;;;;;;;21.23;13.80;;;-3.00;99.90;;;;;;5019041;28;20216;-48
2023/02/07 05:45:37;;;;;;;25.67;15.63;;;-3.10;99.90;;;;;;5029138;28;20204;-49
2023/02/07 05:48:05;;;;;;;22.10;14.23;;;-3.10;99.90;;;;;;5023241;28;20751;-47
2023/02/07 05:50:32;;;;;;;20.47;12.73;;;-3.10;99.90;;;;;;5049244;28;20465;-48
2023/02/07 05:52:59;;;;;;;22.20;13.60;;;-3.10;99.90;;;;;;5030660;28;20311;-48
2023/02/07 05:55:27;;;;;;;28.40;16.80;;;-3.10;99.90;;;;;;5042576;28;20441;-47
2023/02/07 05:57:54;;;;;;;28.60;16.20;;;-3.00;99.90;;;;;;5026685;28;20264;-47
2023/02/07 06:00:21;;;;;;;28.93;15.93;;;-2.90;99.90;;;;;;5015074;28;20523;-48
2023/02/07 06:02:48;;;;;;;32.80;18.53;;;-3.00;99.90;;;;;;5037216;28;20286;-49
2023/02/07 06:05:19;;;;;;;29.00;18.10;;;-3.00;99.90;;;;;;5026913;28;20202;-49
2023/02/07 06:07:46;;;;;;;26.47;18.53;;;-3.20;99.90;;;;;;5042851;28;20487;-49
2023/02/07 06:10:13;;;;;;;29.63;17.57;;;-3.10;99.90;;;;;;5040878;28;20460;-48
2023/02/07 06:12:44;;;;;;;19.83;12.80;;;-3.10;99.90;;;;;;5023769;28;20545;-49
2023/02/07 06:15:11;;;;;;;21.73;13.77;;;-3.10;99.90;;;;;;5024237;28;20198;-51
2023/02/07 06:17:39;;;;;;;25.57;15.23;;;-3.10;99.90;;;;;;5037730;28;20222;-49
2023/02/07 06:20:07;;;;;;;22.33;12.37;;;-3.20;99.90;;;;;;5041471;28;20976;-48
2023/02/07 06:22:34;;;;;;;18.57;12.07;;;-3.30;99.90;;;;;;5025669;28;20548;-48
2023/02/07 06:25:01;;;;;;;18.90;11.60;;;-3.30;99.90;;;;;;5037667;28;20805;-48
2023/02/07 06:27:28;;;;;;;20.47;13.63;;;-3.30;99.90;;;;;;5035057;28;20473;-48
2023/02/07 06:29:56;;;;;;;18.03;12.93;;;-3.30;99.90;;;;;;5050126;28;20445;-48
2023/02/07 06:32:26;;;;;;;18.03;12.23;;;-3.30;99.90;;;;;;5039349;28;20466;-47
2023/02/07 06:34:53;;;;;;;17.70;11.40;;;-3.20;99.90;;;;;;5027457;28;20466;-47
2023/02/07 06:37:21;;;;;;;19.67;12.70;;;-3.20;99.90;;;;;;5023373;28;21448;-49
2023/02/07 06:39:48;;;;;;;15.93;11.43;;;-3.20;99.90;;;;;;5031879;28;20437;-50
2023/02/07 06:42:15;;;;;;;23.97;13.63;;;-3.20;99.90;;;;;;5029969;28;20452;-49
2023/02/07 06:44:42;;;;;;;22.80;13.07;;;-3.20;99.90;;;;;;5039034;28;20970;-49
2023/02/07 06:47:10;;;;;;;21.17;12.27;;;-3.20;99.90;;;;;;5025387;28;20528;-50
2023/02/07 06:49:37;;;;;;;25.37;14.33;;;-3.20;99.90;;;;;;5033874;28;20204;-49
2023/02/07 06:52:05;;;;;;;28.20;16.10;;;-3.20;99.90;;;;;;5034177;28;20470;-48
2023/02/07 06:54:32;;;;;;;30.40;15.80;;;-3.20;99.90;;;;;;5029277;28;20991;-51
2023/02/07 06:56:59;;;;;;;29.53;17.53;;;-3.30;99.90;;;;;;5040863;28;20546;-49
2023/02/07 06:59:26;;;;;;;28.20;16.67;;;-3.30;99.90;;;;;;5022364;28;20208;-49
2023/02/07 07:01:53;;;;;;;24.20;15.17;;;-3.20;99.90;;;;;;5038984;28;20207;-48
2023/02/07 07:04:21;;;;;;;29.27;16.63;;;-3.20;99.90;;;;;;5037107;28;20487;-48
2023/02/07 07:06:48;;;;;;;30.40;17.33;;;-3.10;99.90;;;;;;5027788;28;20461;-50
2023/02/07 07:09:15;;;;;;;25.77;13.83;;;-3.10;99.90;;;;;;5033614;28;20288;-48
2023/02/07 07:11:43;;;;;;;24.57;14.07;;;-3.10;99.90;;;;;;5037480;28;20290;-48
2023/02/07 07:14:11;;;;;;;27.70;15.80;;;-3.00;99.90;;;;;;5033074;28;20226;-49
2023/02/07 07:16:39;;;;;;;26.67;15.07;;;-3.00;99.90;;;;;;5046136;28;20331;-48
2023/02/07 07:19:06;;;;;;;18.20;13.00;;;-2.90;99.90;;;;;;5027351;28;20464;-48
2023/02/07 07:21:35;;;;;;;19.50;12.60;;;-2.80;99.90;;;;;;5026632;28;20554;-49
2023/02/07 07:24:02;;;;;;;18.83;13.00;;;-2.70;99.90;;;;;;5025850;28;20570;-48
2023/02/07 07:26:29;;;;;;;19.47;12.03;;;-2.60;99.90;;;;;;5028804;28;20899;-49
2023/02/07 07:28:58;;;;;;;22.53;14.33;;;-2.70;99.90;;;;;;5037069;28;20487;-48
2023/02/07 07:31:27;;;;;;;27.33;14.67;;;-2.60;99.90;;;;;;5039026;28;20811;-48
2023/02/07 07:33:54;;;;;;;21.97;13.93;;;-2.60;99.90;;;;;;5029587;28;20485;-50
2023/02/07 07:36:22;;;;;;;21.90;14.30;;;-2.50;99.90;;;;;;5028600;28;20836;-49
2023/02/07 07:38:50;;;;;;;16.70;11.87;;;-2.40;99.90;;;;;;5038994;28;20265;-49
2023/02/07 07:41:17;;;;;;;22.47;12.23;;;-2.40;99.90;;;;;;5027265;28;20461;-50
2023/02/07 07:43:44;;;;;;;17.03;11.70;;;-2.20;99.90;;;;;;5025144;28;20624;-49
2023/02/07 07:46:11;;;;;;;15.97;10.90;;;-2.10;99.90;;;;;;5036285;28;20204;-49
2023/02/07 07:48:38;;;;;;;21.07;12.27;;;-2.00;99.90;;;;;;5035996;28;20216;-50
2023/02/07 07:51:06;;;;;;;19.20;11.33;;;-2.00;99.90;;;;;;5033989;28;20271;-50
2023/02/07 07:53:33;;;;;;;18.83;12.27;;;-1.90;99.90;;;;;;5039812;28;20436;-51
2023/02/07 07:56:02;;;;;;;19.67;11.60;;;-1.80;99.90;;;;;;5033756;28;20200;-50
2023/02/07 07:58:29;;;;;;;16.13;11.93;;;-1.70;99.90;;;;;;5044750;28;20250;-49
2023/02/07 08:00:56;;;;;;;16.77;12.50;;;-1.60;99.90;;;;;;5053096;28;20619;-50
2023/02/07 08:03:24;;;;;;;20.43;12.77;;;-1.40;99.90;;;;;;5044022;28;20259;-49
2023/02/07 08:05:51;;;;;;;16.03;12.40;;;-1.30;99.90;;;;;;5028873;28;20257;-50
2023/02/07 08:08:19;;;;;;;18.27;12.50;;;-1.30;99.90;;;;;;5041012;28;20265;-50
2023/02/07 08:10:47;;;;;;;15.63;11.77;;;-1.30;99.90;;;;;;5026771;28;20290;-49
2023/02/07 08:13:15;;;;;;;18.30;11.23;;;-1.20;99.90;;;;;;5031400;28;20609;-50
2023/02/07 08:15:43;;;;;;;13.17;9.43;;;-1.10;99.90;;;;;;5036347;28;20224;-50
2023/02/07 08:18:10;;;;;;;15.38;12.48;;;-1.00;99.90;;;;;;5017995;28;20453;-49
2023/02/07 08:20:37;;;;;;;13.47;9.77;;;-0.60;99.90;;;;;;5027864;28;20207;-47
2023/02/07 08:23:04;;;;;;;12.97;9.43;;;-0.20;99.90;;;;;;5038489;28;20235;-49
2023/02/07 08:25:31;;;;;;;12.60;9.40;;;0.10;99.90;;;;;;5032318;28;20256;-48
2023/02/07 08:27:58;;;;;;;14.63;9.10;;;0.40;99.90;;;;;;5036268;28;20220;-50
2023/02/07 08:30:26;;;;;;;15.87;10.17;;;0.70;99.90;;;;;;5036945;28;20261;-48
2023/02/07 08:32:54;;;;;;;16.17;10.07;;;0.40;99.90;;;;;;5032166;28;20230;-48
2023/02/07 08:35:21;;;;;;;14.67;10.43;;;0.60;99.90;;;;;;5032392;28;20208;-49
2023/02/07 08:37:48;;;;;;;16.40;10.57;;;0.70;99.90;;;;;;5020387;28;20206;-48
2023/02/07 08:40:16;;;;;;;17.03;10.53;;;0.50;99.90;;;;;;5012491;28;20585;-48
2023/02/07 08:42:43;;;;;;;14.90;10.83;;;0.60;99.90;;;;;;5013106;28;20662;-49
2023/02/07 08:45:10;;;;;;;16.83;9.93;;;0.80;99.90;;;;;;5015137;28;20207;-48
2023/02/07 08:47:39;;;;;;;15.13;9.87;;;1.20;99.90;;;;;;5032194;28;20204;-49
2023/02/07 08:50:07;;;;;;;14.17;10.80;;;1.70;99.90;;;;;;5031756;28;20670;-48
2023/02/07 08:52:34;;;;;;;11.77;10.37;;;1.90;99.90;;;;;;5032035;28;20388;-48
2023/02/07 08:55:01;;;;;;;13.07;9.77;;;2.40;99.90;;;;;;5014547;28;20692;-47
2023/02/07 08:57:31;;;;;;;12.33;9.63;;;2.60;99.90;;;;;;5014461;28;20212;-49
2023/02/07 08:59:59;;;;;;;13.10;9.43;;;2.90;99.90;;;;;;5027053;28;20203;-51
2023/02/07 09:02:26;;;;;;;13.37;9.43;;;3.20;99.90;;;;;;5043489;28;20272;-48
2023/02/07 09:04:55;;;;;;;14.10;9.83;;;3.70;99.90;;;;;;5051877;28;20206;-49
2023/02/07 09:07:25;;;;;;;11.70;8.23;;;4.00;99.90;;;;;;5035668;28;20885;-50
2023/02/07 09:09:52;;;;;;;10.47;8.97;;;4.40;99.90;;;;;;5034154;28;20657;-49
2023/02/07 09:12:19;;;;;;;12.60;9.73;;;5.00;99.90;;;;;;5049329;28;20200;-49
2023/02/07 09:14:46;;;;;;;13.47;9.37;;;5.40;99.90;;;;;;5047381;28;20205;-49
2023/02/07 09:17:13;;;;;;;12.20;9.77;;;5.40;99.90;;;;;;5037678;28;20239;-52
2023/02/07 09:19:40;;;;;;;11.27;9.47;;;5.40;99.90;;;;;;5036334;28;20200;-48
2023/02/07 09:22:08;;;;;;;11.87;9.83;;;5.30;99.90;;;;;;5037026;28;20196;-49
2023/02/07 09:24:35;;;;;;;11.00;8.67;;;5.30;99.90;;;;;;5035721;28;20271;-48
2023/02/07 09:27:02;;;;;;;16.67;9.27;;;5.70;99.90;;;;;;5018263;28;20211;-49
2023/02/07 09:29:29;;;;;;;13.97;9.17;;;5.30;99.90;;;;;;5035851;28;20212;-48
2023/02/07 09:31:56;;;;;;;10.73;8.83;;;5.50;99.90;;;;;;5042661;28;20669;-48
2023/02/07 09:34:23;;;;;;;10.07;9.07;;;5.50;99.90;;;;;;5030835;28;20290;-49
2023/02/07 09:36:50;;;;;;;11.20;8.43;;;5.80;99.90;;;;;;5033387;28;20211;-50
2023/02/07 09:39:19;;;;;;;10.30;8.57;;;6.10;99.90;;;;;;5045323;28;20672;-49
2023/02/07 09:41:56;;;;;;;11.57;8.60;;;6.30;99.90;;;;;;5049530;28;20204;-49
2023/02/07 09:44:28;;;;;;;8.63;7.70;;;6.90;99.90;;;;;;5033876;28;20282;-48
2023/02/07 09:46:59;;;;;;;11.23;7.77;;;6.30;99.90;;;;;;5022812;28;20212;-48
2023/02/07 09:49:33;;;;;;;10.63;7.83;;;6.00;99.90;;;;;;5014975;28;20239;-49
2023/02/07 09:52:01;;;;;;;10.97;7.80;;;5.90;99.90;;;;;;5019571;28;20217;-48
2023/02/07 09:54:34;;;;;;;12.50;9.13;;;5.60;99.90;;;;;;5014911;28;20227;-47
2023/02/07 09:57:08;;;;;;;11.63;7.63;;;6.10;99.90;;;;;;5014524;28;20719;-50
2023/02/07 09:59:43;;;;;;;10.23;8.63;;;5.50;99.90;;;;;;5016675;28;20232;-47
2023/02/07 10:02:21;;;;;;;12.60;8.50;;;5.20;99.90;;;;;;5031083;28;20285;-52
2023/02/07 10:04:50;;;;;;;14.07;10.20;;;5.10;99.90;;;;;;5017548;28;20588;-48
2023/02/07 10:07:16;;;;;;;12.27;10.30;;;4.50;99.90;;;;;;5024599;28;20208;-49
2023/02/07 10:09:46;;;;;;;15.57;10.53;;;4.00;99.90;;;;;;5016589;28;20293;-48
2023/02/07 10:12:40;;;;;;;17.63;11.73;;;4.90;99.90;;;;;;5013338;28;20269;-48
2023/02/07 10:15:26;;;;;;;18.20;12.67;;;5.50;99.90;;;;;;5016629;28;20208;-49
2023/02/07 10:18:11;;;;;;;17.13;12.77;;;5.60;99.90;;;;;;5015871;28;20205;-49
2023/02/07 10:20:41;;;;;;;15.20;12.30;;;5.10;99.90;;;;;;5016575;28;20262;-47
2023/02/07 10:23:20;;;;;;;12.97;11.17;;;5.30;99.90;;;;;;5025041;28;20226;-50
2023/02/07 10:25:58;;;;;;;13.37;11.30;;;5.00;99.90;;;;;;5017131;28;20781;-48
2023/02/07 10:29:06;;;;;;;14.90;12.10;;;5.50;99.90;;;;;;5015572;28;20455;-50
2023/02/07 10:31:37;;;;;;;14.07;11.87;;;5.90;99.90;;;;;;5014050;28;20204;-53
2023/02/07 10:34:12;;;;;;;12.20;10.90;;;5.70;99.90;;;;;;5015258;28;20236;-49
2023/02/07 10:36:43;;;;;;;12.73;10.70;;;6.30;99.90;;;;;;5015225;28;20283;-49
2023/02/07 10:39:17;;;;;;;14.03;11.67;;;6.80;99.90;;;;;;5015633;28;20270;-49
2023/02/07 10:41:46;;;;;;;16.07;11.57;;;6.70;99.90;;;;;;5016329;28;20304;-51
2023/02/07 10:44:16;;;;;;;15.47;11.17;;;7.20;99.90;;;;;;5033401;28;20293;-50
2023/02/07 10:46:45;;;;;;;12.47;11.13;;;7.50;99.90;;;;;;5028995;28;20213;-49
2023/02/07 10:49:20;;;;;;;12.50;11.17;;;7.30;99.90;;;;;;5020874;28;20249;-50
2023/02/07 10:51:47;;;;;;;18.23;12.07;;;6.80;99.90;;;;;;5019055;28;20582;-51
2023/02/07 10:54:19;;;;;;;14.00;11.87;;;6.30;99.90;;;;;;5018681;28;20228;-48
2023/02/07 10:56:49;;;;;;;15.27;12.27;;;6.30;99.90;;;;;;5018504;28;20245;-48
2023/02/07 10:59:44;;;;;;;18.73;12.90;;;5.90;99.90;;;;;;5018385;28;20318;-47
2023/02/07 11:02:48;;;;;;;15.27;12.27;;;4.10;99.90;;;;;;5003619;28;20204;-48
2023/02/07 11:05:54;;;;;;;17.03;12.27;;;3.50;99.90;;;;;;5031269;28;20207;-47
2023/02/07 11:08:24;;;;;;;15.20;12.50;;;3.40;99.90;;;;;;4980865;28;20288;-50
2023/02/07 11:10:53;;;;;;;14.73;11.00;;;3.40;99.90;;;;;;5019492;28;20266;-49
2023/02/07 11:13:24;;;;;;;20.57;12.27;;;3.50;99.90;;;;;;5018518;28;20764;-48
2023/02/07 11:15:55;;;;;;;16.60;12.17;;;3.40;99.90;;;;;;5020157;28;20212;-49
2023/02/07 11:18:36;;;;;;;18.43;12.47;;;3.40;99.90;;;;;;5018681;28;20212;-47
2023/02/07 11:21:11;;;;;;;16.33;11.93;;;3.50;99.90;;;;;;5019008;28;20208;-48
2023/02/07 11:23:43;;;;;;;16.73;12.60;;;3.50;99.90;;;;;;5029698;28;20227;-48
2023/02/07 11:26:10;;;;;;;15.93;12.27;;;3.50;99.90;;;;;;5044791;28;20261;-48
2023/02/07 11:28:39;;;;;;;12.50;10.60;;;3.40;99.90;;;;;;5018895;28;20227;-49
2023/02/07 11:31:10;;;;;;;14.80;11.70;;;3.00;99.90;;;;;;5033899;28;20207;-49
2023/02/07 11:33:37;;;;;;;14.60;10.77;;;2.90;99.90;;;;;;5039578;28;20311;-49
2023/02/07 11:36:10;;;;;;;12.77;10.80;;;2.80;99.90;;;;;;5031835;28;20242;-48
2023/02/07 11:38:40;;;;;;;18.37;12.17;;;2.90;99.90;;;;;;5018896;28;20206;-48
2023/02/07 11:41:15;;;;;;;15.70;12.10;;;2.70;99.90;;;;;;5038817;28;20257;-48
2023/02/07 11:43:54;;;;;;;17.90;12.23;;;2.70;99.90;;;;;;5033105;28;20278;-48
2023/02/07 11:46:23;;;;;;;14.27;12.03;;;2.60;99.90;;;;;;5015675;28;20224;-47
2023/02/07 11:48:54;;;;;;;18.33;12.50;;;2.70;99.90;;;;;;5027591;28;20223;-48
2023/02/07 11:51:22;;;;;;;16.20;11.67;;;2.90;99.90;;;;;;5041406;28;20720;-49
2023/02/07 11:53:54;;;;;;;16.77;11.63;;;3.00;99.90;;;;;;5041966;28;20311;-50
2023/02/07 11:56:24;;;;;;;18.03;10.43;;;3.00;99.90;;;;;;5023584;28;20233;-48
2023/02/07 11:58:54;;;;;;;14.10;10.30;;;3.10;99.90;;;;;;5033565;28;20196;-48
2023/02/07 12:01:27;;;;;;;17.37;10.63;;;3.10;99.90;;;;;;5032054;28;20201;-48
2023/02/07 12:03:59;;;;;;;16.80;11.70;;;3.10;99.90;;;;;;5013718;28;20220;-50
2023/02/07 12:06:33;;;;;;;17.03;10.50;;;3.30;99.90;;;;;;5027917;28;20284;-48
2023/02/07 12:09:01;;;;;;;9.97;8.67;;;3.40;99.90;;;;;;5038029;28;20210;-49
2023/02/07 12:11:35;;;;;;;14.70;10.33;;;3.30;99.90;;;;;;5053522;28;20627;-49
2023/02/07 12:14:10;;;;;;;12.90;9.83;;;3.30;99.90;;;;;;5042886;28;20255;-48
2023/02/07 12:16:43;;;;;;;14.27;10.77;;;3.30;99.90;;;;;;5039575;28;20615;-48
2023/02/07 12:19:17;;;;;;;13.83;11.23;;;3.10;99.90;;;;;;5029728;28;20205;-50
2023/02/07 12:21:53;;;;;;;14.17;10.17;;;2.90;99.90;;;;;;5018367;28;20203;-49
2023/02/07 12:24:26;;;;;;;14.33;10.43;;;3.00;99.90;;;;;;5044643;28;20240;-48
2023/02/07 12:26:58;;;;;;;13.47;9.67;;;3.00;99.90;;;;;;5053199;28;20266;-48
2023/02/07 12:29:51;;;;;;;14.30;10.87;;;3.10;99.90;;;;;;5052945;28;20717;-47
2023/02/07 12:32:26;;;;;;;15.93;11.43;;;3.10;99.90;;;;;;5047839;28;20199;-49
2023/02/07 12:35:00;;;;;;;13.70;10.60;;;3.00;99.90;;;;;;5044704;28;20274;-48
2023/02/07 12:37:33;;;;;;;14.00;10.60;;;3.20;99.90;;;;;;5014942;28;20715;-48
2023/02/07 12:40:09;;;;;;;13.30;11.10;;;3.50;99.90;;;;;;5013033;28;20200;-49
2023/02/07 12:42:41;;;;;;;12.90;10.23;;;3.40;99.90;;;;;;5031046;28;20310;-50
2023/02/07 12:45:15;;;;;;;14.27;11.00;;;3.50;99.90;;;;;;5045928;28;20233;-49
2023/02/07 12:47:50;;;;;;;13.53;10.67;;;3.30;99.90;;;;;;5040861;28;20208;-48
2023/02/07 12:50:45;;;;;;;14.93;11.17;;;3.30;99.90;;;;;;5043879;28;20295;-49